sensor_id;sensor_type;location;lat;lon;timestamp;temperature;humidity
75281;HTU21D;63874;47.230;39.620;2022-12-07T00:01:38;-7.69;69.49
75281;HTU21D;63874;47.230;39.620;2022-12-07T00:04:05;-7.68;69.41
75281;HTU21D;63874;47.230;39.620;2022-12-07T00:06:38;-7.76;69.59
75281;HTU21D;63874;47.230;39.620;2022-12-07T00:09:05;-7.70;69.61
75281;HTU21D;63874;47.230;39.620;2022-12-07T00:11:31;-7.67;69.42
75281;HTU21D;63874;47.230;39.620;2022-12-07T00:13:59;-7.67;69.40
75281;HTU21D;63874;47.230;39.620;2022-12-07T00:16:28;-7.70;69.20
75281;HTU21D;63874;47.230;39.620;2022-12-07T00:18:55;-7.67;69.96
75281;HTU21D;63874;47.230;39.620;2022-12-07T00:21:23;-7.71;69.43
75281;HTU21D;63874;47.230;39.620;2022-12-07T00:23:50;-7.71;69.33
75281;HTU21D;63874;47.230;39.620;2022-12-07T00:26:27;-7.77;69.69
75281;HTU21D;63874;47.230;39.620;2022-12-07T00:28:55;-7.75;69.81
75281;HTU21D;63874;47.230;39.620;2022-12-07T00:31:26;-7.76;69.84
75281;HTU21D;63874;47.230;39.620;2022-12-07T00:33:52;-7.80;69.84
75281;HTU21D;63874;47.230;39.620;2022-12-07T00:36:20;-7.74;70.08
75281;HTU21D;63874;47.230;39.620;2022-12-07T00:38:46;-7.70;69.66
75281;HTU21D;63874;47.230;39.620;2022-12-07T00:41:14;-7.69;70.04
75281;HTU21D;63874;47.230;39.620;2022-12-07T00:43:42;-7.72;69.35
75281;HTU21D;63874;47.230;39.620;2022-12-07T00:46:09;-7.76;69.42
75281;HTU21D;63874;47.230;39.620;2022-12-07T00:48:35;-7.78;69.67
75281;HTU21D;63874;47.230;39.620;2022-12-07T00:51:02;-7.76;69.54
75281;HTU21D;63874;47.230;39.620;2022-12-07T00:53:28;-7.71;69.93
75281;HTU21D;63874;47.230;39.620;2022-12-07T00:55:54;-7.74;69.22
75281;HTU21D;63874;47.230;39.620;2022-12-07T00:58:22;-7.67;70.11
75281;HTU21D;63874;47.230;39.620;2022-12-07T01:00:49;-7.72;69.25
75281;HTU21D;63874;47.230;39.620;2022-12-07T01:03:16;-7.72;69.70
75281;HTU21D;63874;47.230;39.620;2022-12-07T01:05:53;-7.74;69.57
75281;HTU21D;63874;47.230;39.620;2022-12-07T01:08:20;-7.74;69.65
75281;HTU21D;63874;47.230;39.620;2022-12-07T01:10:47;-7.72;69.51
75281;HTU21D;63874;47.230;39.620;2022-12-07T01:13:14;-7.71;69.95
75281;HTU21D;63874;47.230;39.620;2022-12-07T01:15:43;-7.70;69.65
75281;HTU21D;63874;47.230;39.620;2022-12-07T01:18:10;-7.75;69.78
75281;HTU21D;63874;47.230;39.620;2022-12-07T01:20:36;-7.77;69.87
75281;HTU21D;63874;47.230;39.620;2022-12-07T01:23:02;-7.74;70.22
75281;HTU21D;63874;47.230;39.620;2022-12-07T01:25:28;-7.75;70.04
75281;HTU21D;63874;47.230;39.620;2022-12-07T01:27:54;-7.72;69.92
75281;HTU21D;63874;47.230;39.620;2022-12-07T01:30:20;-7.72;69.97
75281;HTU21D;63874;47.230;39.620;2022-12-07T01:32:46;-7.74;70.32
75281;HTU21D;63874;47.230;39.620;2022-12-07T01:35:12;-7.75;70.32
75281;HTU21D;63874;47.230;39.620;2022-12-07T01:37:38;-7.74;69.94
75281;HTU21D;63874;47.230;39.620;2022-12-07T01:40:06;-7.79;70.11
75281;HTU21D;63874;47.230;39.620;2022-12-07T01:42:33;-7.79;70.77
75281;HTU21D;63874;47.230;39.620;2022-12-07T01:45:20;-7.75;70.62
75281;HTU21D;63874;47.230;39.620;2022-12-07T01:47:57;-7.84;70.71
75281;HTU21D;63874;47.230;39.620;2022-12-07T01:50:27;-7.90;70.78
75281;HTU21D;63874;47.230;39.620;2022-12-07T01:52:55;-7.92;71.13
75281;HTU21D;63874;47.230;39.620;2022-12-07T01:55:22;-7.92;70.87
75281;HTU21D;63874;47.230;39.620;2022-12-07T01:57:49;-7.94;71.18
75281;HTU21D;63874;47.230;39.620;2022-12-07T02:00:17;-7.94;71.33
75281;HTU21D;63874;47.230;39.620;2022-12-07T02:02:51;-7.95;71.24
75281;HTU21D;63874;47.230;39.620;2022-12-07T02:05:19;-7.89;71.61
75281;HTU21D;63874;47.230;39.620;2022-12-07T02:07:47;-7.85;71.57
75281;HTU21D;63874;47.230;39.620;2022-12-07T02:10:27;-7.81;71.55
75281;HTU21D;63874;47.230;39.620;2022-12-07T02:13:18;-7.86;71.39
75281;HTU21D;63874;47.230;39.620;2022-12-07T02:29:36;-7.86;71.37
75281;HTU21D;63874;47.230;39.620;2022-12-07T02:32:15;-7.85;71.60
75281;HTU21D;63874;47.230;39.620;2022-12-07T02:35:39;-7.86;71.66
75281;HTU21D;63874;47.230;39.620;2022-12-07T02:38:46;-7.81;71.47
75281;HTU21D;63874;47.230;39.620;2022-12-07T02:41:12;-7.85;71.89
75281;HTU21D;63874;47.230;39.620;2022-12-07T02:43:43;-7.85;71.79
75281;HTU21D;63874;47.230;39.620;2022-12-07T02:46:16;-7.84;71.93
75281;HTU21D;63874;47.230;39.620;2022-12-07T02:48:43;-7.87;72.01
75281;HTU21D;63874;47.230;39.620;2022-12-07T02:51:11;-7.83;71.70
75281;HTU21D;63874;47.230;39.620;2022-12-07T02:53:38;-7.81;71.93
75281;HTU21D;63874;47.230;39.620;2022-12-07T03:04:26;-7.81;72.09
75281;HTU21D;63874;47.230;39.620;2022-12-07T03:06:58;-7.83;71.62
75281;HTU21D;63874;47.230;39.620;2022-12-07T03:09:44;-7.84;71.97
75281;HTU21D;63874;47.230;39.620;2022-12-07T03:12:18;-7.89;71.65
75281;HTU21D;63874;47.230;39.620;2022-12-07T03:14:53;-7.86;72.34
75281;HTU21D;63874;47.230;39.620;2022-12-07T03:17:27;-7.90;72.00
75281;HTU21D;63874;47.230;39.620;2022-12-07T03:19:57;-7.90;72.00
75281;HTU21D;63874;47.230;39.620;2022-12-07T03:22:23;-7.93;71.96
75281;HTU21D;63874;47.230;39.620;2022-12-07T03:24:57;-7.92;72.02
75281;HTU21D;63874;47.230;39.620;2022-12-07T03:27:34;-7.94;72.34
75281;HTU21D;63874;47.230;39.620;2022-12-07T03:30:07;-7.92;72.69
75281;HTU21D;63874;47.230;39.620;2022-12-07T03:35:17;-8.03;72.51
75281;HTU21D;63874;47.230;39.620;2022-12-07T03:37:52;-8.03;72.81
75281;HTU21D;63874;47.230;39.620;2022-12-07T03:40:30;-8.06;72.87
75281;HTU21D;63874;47.230;39.620;2022-12-07T03:42:59;-8.04;72.64
75281;HTU21D;63874;47.230;39.620;2022-12-07T03:45:40;-8.09;72.60
75281;HTU21D;63874;47.230;39.620;2022-12-07T03:48:32;-8.05;72.99
75281;HTU21D;63874;47.230;39.620;2022-12-07T03:53:33;-8.05;72.68
75281;HTU21D;63874;47.230;39.620;2022-12-07T03:56:01;-8.03;72.84
75281;HTU21D;63874;47.230;39.620;2022-12-07T03:58:28;-7.99;72.96
75281;HTU21D;63874;47.230;39.620;2022-12-07T04:00:55;-7.99;72.63
75281;HTU21D;63874;47.230;39.620;2022-12-07T04:03:21;-7.98;72.59
75281;HTU21D;63874;47.230;39.620;2022-12-07T04:05:47;-7.96;72.91
75281;HTU21D;63874;47.230;39.620;2022-12-07T04:08:13;-7.92;73.19
75281;HTU21D;63874;47.230;39.620;2022-12-07T04:10:39;-7.92;72.90
75281;HTU21D;63874;47.230;39.620;2022-12-07T04:13:05;-7.93;72.74
75281;HTU21D;63874;47.230;39.620;2022-12-07T04:15:31;-7.92;72.93
75281;HTU21D;63874;47.230;39.620;2022-12-07T04:17:57;-7.92;72.74
75281;HTU21D;63874;47.230;39.620;2022-12-07T04:20:23;-7.96;72.57
75281;HTU21D;63874;47.230;39.620;2022-12-07T04:22:49;-7.95;72.38
75281;HTU21D;63874;47.230;39.620;2022-12-07T04:25:15;-7.94;72.59
75281;HTU21D;63874;47.230;39.620;2022-12-07T04:27:41;-7.96;72.31
75281;HTU21D;63874;47.230;39.620;2022-12-07T04:30:07;-7.94;72.48
75281;HTU21D;63874;47.230;39.620;2022-12-07T04:32:33;-7.95;72.67
75281;HTU21D;63874;47.230;39.620;2022-12-07T04:34:59;-7.99;72.48
75281;HTU21D;63874;47.230;39.620;2022-12-07T04:37:25;-8.01;72.68
75281;HTU21D;63874;47.230;39.620;2022-12-07T04:39:51;-8.01;72.39
75281;HTU21D;63874;47.230;39.620;2022-12-07T04:42:17;-7.99;72.68
75281;HTU21D;63874;47.230;39.620;2022-12-07T04:44:42;-8.06;72.54
75281;HTU21D;63874;47.230;39.620;2022-12-07T04:47:08;-8.05;72.61
75281;HTU21D;63874;47.230;39.620;2022-12-07T04:49:34;-8.07;72.96
75281;HTU21D;63874;47.230;39.620;2022-12-07T04:52:00;-8.14;72.80
75281;HTU21D;63874;47.230;39.620;2022-12-07T04:54:26;-8.09;72.96
75281;HTU21D;63874;47.230;39.620;2022-12-07T04:56:52;-8.11;72.58
75281;HTU21D;63874;47.230;39.620;2022-12-07T04:59:18;-8.16;72.76
75281;HTU21D;63874;47.230;39.620;2022-12-07T05:01:44;-8.18;72.83
75281;HTU21D;63874;47.230;39.620;2022-12-07T05:04:10;-8.14;72.95
75281;HTU21D;63874;47.230;39.620;2022-12-07T05:06:36;-8.15;72.73
75281;HTU21D;63874;47.230;39.620;2022-12-07T05:09:02;-8.15;72.69
75281;HTU21D;63874;47.230;39.620;2022-12-07T05:11:28;-8.18;72.85
75281;HTU21D;63874;47.230;39.620;2022-12-07T05:14:11;-8.19;72.92
75281;HTU21D;63874;47.230;39.620;2022-12-07T05:16:38;-8.18;72.78
75281;HTU21D;63874;47.230;39.620;2022-12-07T05:19:04;-8.21;72.63
75281;HTU21D;63874;47.230;39.620;2022-12-07T05:21:30;-8.15;73.07
75281;HTU21D;63874;47.230;39.620;2022-12-07T05:23:56;-8.19;72.81
75281;HTU21D;63874;47.230;39.620;2022-12-07T05:26:22;-8.18;72.74
75281;HTU21D;63874;47.230;39.620;2022-12-07T05:28:54;-8.18;72.83
75281;HTU21D;63874;47.230;39.620;2022-12-07T05:31:22;-8.18;72.87
75281;HTU21D;63874;47.230;39.620;2022-12-07T05:33:48;-8.23;73.35
75281;HTU21D;63874;47.230;39.620;2022-12-07T05:36:14;-8.24;72.99
75281;HTU21D;63874;47.230;39.620;2022-12-07T05:38:40;-8.20;73.02
75281;HTU21D;63874;47.230;39.620;2022-12-07T05:41:07;-8.19;73.06
75281;HTU21D;63874;47.230;39.620;2022-12-07T05:43:53;-8.20;72.83
75281;HTU21D;63874;47.230;39.620;2022-12-07T05:46:19;-8.19;72.80
75281;HTU21D;63874;47.230;39.620;2022-12-07T05:48:45;-8.13;73.07
75281;HTU21D;63874;47.230;39.620;2022-12-07T05:51:11;-8.11;73.28
75281;HTU21D;63874;47.230;39.620;2022-12-07T05:53:37;-8.03;73.21
75281;HTU21D;63874;47.230;39.620;2022-12-07T05:56:03;-8.03;72.95
75281;HTU21D;63874;47.230;39.620;2022-12-07T05:58:29;-8.03;72.90
75281;HTU21D;63874;47.230;39.620;2022-12-07T06:01:13;-8.01;72.98
75281;HTU21D;63874;47.230;39.620;2022-12-07T06:03:39;-8.00;72.95
75281;HTU21D;63874;47.230;39.620;2022-12-07T06:06:05;-7.96;72.96
75281;HTU21D;63874;47.230;39.620;2022-12-07T06:08:31;-7.92;72.93
75281;HTU21D;63874;47.230;39.620;2022-12-07T06:10:57;-7.86;72.95
75281;HTU21D;63874;47.230;39.620;2022-12-07T06:13:41;-7.86;72.93
75281;HTU21D;63874;47.230;39.620;2022-12-07T06:16:07;-7.79;72.93
75281;HTU21D;63874;47.230;39.620;2022-12-07T06:18:32;-7.78;72.68
75281;HTU21D;63874;47.230;39.620;2022-12-07T06:20:59;-7.74;72.80
75281;HTU21D;63874;47.230;39.620;2022-12-07T06:23:25;-7.69;72.91
75281;HTU21D;63874;47.230;39.620;2022-12-07T06:25:51;-7.71;72.70
75281;HTU21D;63874;47.230;39.620;2022-12-07T06:28:17;-7.66;72.81
75281;HTU21D;63874;47.230;39.620;2022-12-07T06:30:42;-7.64;72.69
75281;HTU21D;63874;47.230;39.620;2022-12-07T06:33:08;-7.62;72.88
75281;HTU21D;63874;47.230;39.620;2022-12-07T06:35:34;-7.64;72.96
75281;HTU21D;63874;47.230;39.620;2022-12-07T06:38:00;-7.60;72.97
75281;HTU21D;63874;47.230;39.620;2022-12-07T06:40:26;-7.61;72.93
75281;HTU21D;63874;47.230;39.620;2022-12-07T06:42:52;-7.57;72.95
75281;HTU21D;63874;47.230;39.620;2022-12-07T06:45:18;-7.54;73.12
75281;HTU21D;63874;47.230;39.620;2022-12-07T06:47:44;-7.53;73.10
75281;HTU21D;63874;47.230;39.620;2022-12-07T06:50:10;-7.46;73.28
75281;HTU21D;63874;47.230;39.620;2022-12-07T06:52:35;-7.47;73.20
75281;HTU21D;63874;47.230;39.620;2022-12-07T06:55:01;-7.51;73.79
75281;HTU21D;63874;47.230;39.620;2022-12-07T06:57:27;-7.52;73.86
75281;HTU21D;63874;47.230;39.620;2022-12-07T06:59:56;-7.53;74.29
75281;HTU21D;63874;47.230;39.620;2022-12-07T07:02:22;-7.53;74.99
75281;HTU21D;63874;47.230;39.620;2022-12-07T07:04:48;-7.51;74.51
75281;HTU21D;63874;47.230;39.620;2022-12-07T07:07:14;-7.47;74.96
75281;HTU21D;63874;47.230;39.620;2022-12-07T07:09:39;-7.41;75.14
75281;HTU21D;63874;47.230;39.620;2022-12-07T07:12:05;-7.39;74.60
75281;HTU21D;63874;47.230;39.620;2022-12-07T07:14:31;-7.35;74.96
75281;HTU21D;63874;47.230;39.620;2022-12-07T07:16:58;-7.33;74.95
75281;HTU21D;63874;47.230;39.620;2022-12-07T07:19:24;-7.24;74.83
75281;HTU21D;63874;47.230;39.620;2022-12-07T07:21:49;-7.16;74.86
75281;HTU21D;63874;47.230;39.620;2022-12-07T07:24:15;-7.12;74.71
75281;HTU21D;63874;47.230;39.620;2022-12-07T07:26:41;-7.09;74.99
75281;HTU21D;63874;47.230;39.620;2022-12-07T07:29:07;-7.07;74.63
75281;HTU21D;63874;47.230;39.620;2022-12-07T07:31:33;-6.98;74.86
75281;HTU21D;63874;47.230;39.620;2022-12-07T07:34:01;-6.93;74.59
75281;HTU21D;63874;47.230;39.620;2022-12-07T07:36:27;-6.92;74.62
75281;HTU21D;63874;47.230;39.620;2022-12-07T07:38:52;-6.87;74.80
75281;HTU21D;63874;47.230;39.620;2022-12-07T07:41:18;-6.85;74.77
75281;HTU21D;63874;47.230;39.620;2022-12-07T07:43:44;-6.77;74.89
75281;HTU21D;63874;47.230;39.620;2022-12-07T07:46:10;-6.76;75.09
75281;HTU21D;63874;47.230;39.620;2022-12-07T07:48:36;-6.72;75.26
75281;HTU21D;63874;47.230;39.620;2022-12-07T07:51:05;-6.72;75.21
75281;HTU21D;63874;47.230;39.620;2022-12-07T07:53:32;-6.64;75.50
75281;HTU21D;63874;47.230;39.620;2022-12-07T07:55:58;-6.60;75.84
75281;HTU21D;63874;47.230;39.620;2022-12-07T07:58:24;-6.58;75.44
75281;HTU21D;63874;47.230;39.620;2022-12-07T08:00:51;-6.47;75.46
75281;HTU21D;63874;47.230;39.620;2022-12-07T08:03:17;-6.39;75.55
75281;HTU21D;63874;47.230;39.620;2022-12-07T08:05:43;-6.36;75.31
75281;HTU21D;63874;47.230;39.620;2022-12-07T08:08:09;-6.31;75.44
75281;HTU21D;63874;47.230;39.620;2022-12-07T08:10:35;-6.29;75.41
75281;HTU21D;63874;47.230;39.620;2022-12-07T08:13:02;-6.30;75.55
75281;HTU21D;63874;47.230;39.620;2022-12-07T08:15:40;-6.24;75.57
75281;HTU21D;63874;47.230;39.620;2022-12-07T08:18:07;-6.19;75.70
75281;HTU21D;63874;47.230;39.620;2022-12-07T08:20:34;-6.14;75.68
75281;HTU21D;63874;47.230;39.620;2022-12-07T08:23:01;-6.13;75.75
75281;HTU21D;63874;47.230;39.620;2022-12-07T08:25:27;-6.09;75.71
75281;HTU21D;63874;47.230;39.620;2022-12-07T08:27:54;-6.12;75.70
75281;HTU21D;63874;47.230;39.620;2022-12-07T08:30:20;-6.06;75.95
75281;HTU21D;63874;47.230;39.620;2022-12-07T08:32:47;-6.14;75.49
75281;HTU21D;63874;47.230;39.620;2022-12-07T08:35:14;-6.14;75.56
75281;HTU21D;63874;47.230;39.620;2022-12-07T08:37:40;-6.15;75.78
75281;HTU21D;63874;47.230;39.620;2022-12-07T08:40:07;-6.08;75.85
75281;HTU21D;63874;47.230;39.620;2022-12-07T08:42:33;-6.04;75.84
75281;HTU21D;63874;47.230;39.620;2022-12-07T08:45:11;-6.02;75.74
75281;HTU21D;63874;47.230;39.620;2022-12-07T08:47:54;-6.00;75.86
75281;HTU21D;63874;47.230;39.620;2022-12-07T08:50:21;-5.96;75.91
75281;HTU21D;63874;47.230;39.620;2022-12-07T08:52:50;-5.93;75.60
75281;HTU21D;63874;47.230;39.620;2022-12-07T08:55:17;-5.88;75.67
75281;HTU21D;63874;47.230;39.620;2022-12-07T08:57:44;-5.85;75.47
75281;HTU21D;63874;47.230;39.620;2022-12-07T09:00:10;-5.78;75.59
75281;HTU21D;63874;47.230;39.620;2022-12-07T09:02:36;-5.73;75.51
75281;HTU21D;63874;47.230;39.620;2022-12-07T09:05:03;-5.71;75.77
75281;HTU21D;63874;47.230;39.620;2022-12-07T09:07:29;-5.70;75.62
75281;HTU21D;63874;47.230;39.620;2022-12-07T09:09:56;-5.76;75.80
75281;HTU21D;63874;47.230;39.620;2022-12-07T09:12:22;-5.78;75.80
75281;HTU21D;63874;47.230;39.620;2022-12-07T09:14:48;-5.81;75.79
75281;HTU21D;63874;47.230;39.620;2022-12-07T09:17:13;-5.81;76.35
75281;HTU21D;63874;47.230;39.620;2022-12-07T09:19:39;-5.77;76.60
75281;HTU21D;63874;47.230;39.620;2022-12-07T09:22:08;-5.74;76.31
75281;HTU21D;63874;47.230;39.620;2022-12-07T09:24:34;-5.71;76.40
75281;HTU21D;63874;47.230;39.620;2022-12-07T09:27:00;-5.71;76.41
75281;HTU21D;63874;47.230;39.620;2022-12-07T09:29:26;-5.64;76.44
75281;HTU21D;63874;47.230;39.620;2022-12-07T09:31:52;-5.53;76.31
75281;HTU21D;63874;47.230;39.620;2022-12-07T09:34:18;-5.46;76.18
75281;HTU21D;63874;47.230;39.620;2022-12-07T09:36:44;-5.50;76.00
75281;HTU21D;63874;47.230;39.620;2022-12-07T09:39:10;-5.59;76.05
75281;HTU21D;63874;47.230;39.620;2022-12-07T09:41:41;-5.59;76.37
75281;HTU21D;63874;47.230;39.620;2022-12-07T09:44:24;-5.59;76.21
75281;HTU21D;63874;47.230;39.620;2022-12-07T09:46:51;-5.55;76.18
75281;HTU21D;63874;47.230;39.620;2022-12-07T09:49:23;-5.49;76.18
75281;HTU21D;63874;47.230;39.620;2022-12-07T09:52:00;-5.46;76.33
75281;HTU21D;63874;47.230;39.620;2022-12-07T09:54:28;-5.44;76.22
75281;HTU21D;63874;47.230;39.620;2022-12-07T09:56:54;-5.42;76.12
75281;HTU21D;63874;47.230;39.620;2022-12-07T09:59:20;-5.38;76.45
75281;HTU21D;63874;47.230;39.620;2022-12-07T10:01:49;-5.31;76.56
75281;HTU21D;63874;47.230;39.620;2022-12-07T10:04:24;-5.30;76.20
75281;HTU21D;63874;47.230;39.620;2022-12-07T10:06:51;-5.26;76.21
75281;HTU21D;63874;47.230;39.620;2022-12-07T10:09:19;-5.19;76.05
75281;HTU21D;63874;47.230;39.620;2022-12-07T10:12:07;-5.14;75.92
75281;HTU21D;63874;47.230;39.620;2022-12-07T10:14:40;-5.10;75.83
75281;HTU21D;63874;47.230;39.620;2022-12-07T10:17:26;-5.05;75.67
75281;HTU21D;63874;47.230;39.620;2022-12-07T10:22:38;-5.00;75.89
75281;HTU21D;63874;47.230;39.620;2022-12-07T10:25:08;-5.00;75.88
75281;HTU21D;63874;47.230;39.620;2022-12-07T10:27:34;-5.01;76.14
75281;HTU21D;63874;47.230;39.620;2022-12-07T10:30:01;-5.00;76.18
75281;HTU21D;63874;47.230;39.620;2022-12-07T10:32:34;-4.95;76.22
75281;HTU21D;63874;47.230;39.620;2022-12-07T10:35:23;-4.85;76.31
75281;HTU21D;63874;47.230;39.620;2022-12-07T10:37:50;-4.79;76.22
75281;HTU21D;63874;47.230;39.620;2022-12-07T10:40:35;-4.72;76.29
75281;HTU21D;63874;47.230;39.620;2022-12-07T10:43:02;-4.72;76.38
75281;HTU21D;63874;47.230;39.620;2022-12-07T10:45:29;-4.66;76.48
75281;HTU21D;63874;47.230;39.620;2022-12-07T11:06:51;-4.49;76.47
75281;HTU21D;63874;47.230;39.620;2022-12-07T11:09:28;-4.46;76.44
75281;HTU21D;63874;47.230;39.620;2022-12-07T11:17:45;-4.46;77.20
75281;HTU21D;63874;47.230;39.620;2022-12-07T11:20:43;-4.45;77.18
75281;HTU21D;63874;47.230;39.620;2022-12-07T11:29:17;-4.37;77.41
75281;HTU21D;63874;47.230;39.620;2022-12-07T11:37:01;-4.27;77.44
75281;HTU21D;63874;47.230;39.620;2022-12-07T11:39:37;-4.23;77.52
75281;HTU21D;63874;47.230;39.620;2022-12-07T11:42:22;-4.21;77.32
75281;HTU21D;63874;47.230;39.620;2022-12-07T11:44:55;-4.19;77.31
75281;HTU21D;63874;47.230;39.620;2022-12-07T11:47:38;-4.19;77.49
75281;HTU21D;63874;47.230;39.620;2022-12-07T11:55:56;-4.08;77.37
75281;HTU21D;63874;47.230;39.620;2022-12-07T12:00:56;-3.96;77.13
75281;HTU21D;63874;47.230;39.620;2022-12-07T12:03:33;-3.91;77.10
75281;HTU21D;63874;47.230;39.620;2022-12-07T12:05:59;-3.87;77.22
75281;HTU21D;63874;47.230;39.620;2022-12-07T12:08:46;-3.84;77.11
75281;HTU21D;63874;47.230;39.620;2022-12-07T12:16:56;-3.76;76.83
75281;HTU21D;63874;47.230;39.620;2022-12-07T12:20:00;-3.71;76.79
75281;HTU21D;63874;47.230;39.620;2022-12-07T12:22:37;-3.69;76.87
75281;HTU21D;63874;47.230;39.620;2022-12-07T12:25:06;-3.67;76.76
75281;HTU21D;63874;47.230;39.620;2022-12-07T12:27:37;-3.65;76.82
75281;HTU21D;63874;47.230;39.620;2022-12-07T12:30:22;-3.63;76.88
75281;HTU21D;63874;47.230;39.620;2022-12-07T12:32:49;-3.60;76.79
75281;HTU21D;63874;47.230;39.620;2022-12-07T12:35:36;-3.61;76.91
75281;HTU21D;63874;47.230;39.620;2022-12-07T12:49:36;-3.42;76.37
75281;HTU21D;63874;47.230;39.620;2022-12-07T12:57:35;-3.37;76.06
75281;HTU21D;63874;47.230;39.620;2022-12-07T13:00:22;-3.37;75.93
75281;HTU21D;63874;47.230;39.620;2022-12-07T13:02:54;-3.33;75.87
75281;HTU21D;63874;47.230;39.620;2022-12-07T13:05:31;-3.28;75.73
75281;HTU21D;63874;47.230;39.620;2022-12-07T13:08:14;-3.22;75.55
75281;HTU21D;63874;47.230;39.620;2022-12-07T13:10:46;-3.27;75.50
75281;HTU21D;63874;47.230;39.620;2022-12-07T13:15:47;-3.20;75.15
75281;HTU21D;63874;47.230;39.620;2022-12-07T13:23:36;-3.12;74.89
75281;HTU21D;63874;47.230;39.620;2022-12-07T13:26:16;-3.12;74.83
75281;HTU21D;63874;47.230;39.620;2022-12-07T13:28:48;-3.15;74.81
75281;HTU21D;63874;47.230;39.620;2022-12-07T13:33:52;-3.13;74.70
75281;HTU21D;63874;47.230;39.620;2022-12-07T13:36:37;-3.12;74.64
75281;HTU21D;63874;47.230;39.620;2022-12-07T13:39:21;-3.10;74.41
75281;HTU21D;63874;47.230;39.620;2022-12-07T13:41:54;-3.10;74.39
75281;HTU21D;63874;47.230;39.620;2022-12-07T13:44:20;-3.11;74.29
75281;HTU21D;63874;47.230;39.620;2022-12-07T13:51:50;-3.18;74.32
75281;HTU21D;63874;47.230;39.620;2022-12-07T13:54:17;-3.13;74.18
75281;HTU21D;63874;47.230;39.620;2022-12-07T13:56:43;-3.10;74.03
75281;HTU21D;63874;47.230;39.620;2022-12-07T13:59:14;-3.08;73.75
75281;HTU21D;63874;47.230;39.620;2022-12-07T14:01:40;-3.08;73.57
75281;HTU21D;63874;47.230;39.620;2022-12-07T14:04:29;-3.07;73.54
75281;HTU21D;63874;47.230;39.620;2022-12-07T14:06:55;-3.07;73.31
75281;HTU21D;63874;47.230;39.620;2022-12-07T14:09:25;-3.06;73.15
75281;HTU21D;63874;47.230;39.620;2022-12-07T14:11:54;-3.05;73.03
75281;HTU21D;63874;47.230;39.620;2022-12-07T14:14:30;-3.05;73.14
75281;HTU21D;63874;47.230;39.620;2022-12-07T14:16:59;-3.07;73.16
75281;HTU21D;63874;47.230;39.620;2022-12-07T14:19:44;-3.04;72.96
75281;HTU21D;63874;47.230;39.620;2022-12-07T14:26:04;-2.98;72.54
75281;HTU21D;63874;47.230;39.620;2022-12-07T14:28:26;-3.02;72.61
75281;HTU21D;63874;47.230;39.620;2022-12-07T14:30:52;-3.01;72.54
75281;HTU21D;63874;47.230;39.620;2022-12-07T14:33:18;-2.97;72.32
75281;HTU21D;63874;47.230;39.620;2022-12-07T14:35:45;-3.01;72.32
75281;HTU21D;63874;47.230;39.620;2022-12-07T14:38:11;-3.01;72.33
75281;HTU21D;63874;47.230;39.620;2022-12-07T14:40:38;-2.94;71.92
75281;HTU21D;63874;47.230;39.620;2022-12-07T14:43:09;-2.92;71.67
75281;HTU21D;63874;47.230;39.620;2022-12-07T14:45:36;-2.95;71.69
75281;HTU21D;63874;47.230;39.620;2022-12-07T14:48:03;-2.91;71.41
75281;HTU21D;63874;47.230;39.620;2022-12-07T14:50:28;-2.91;71.45
75281;HTU21D;63874;47.230;39.620;2022-12-07T14:52:59;-2.97;71.26
75281;HTU21D;63874;47.230;39.620;2022-12-07T14:55:30;-3.03;71.42
75281;HTU21D;63874;47.230;39.620;2022-12-07T14:57:56;-3.01;71.26
75281;HTU21D;63874;47.230;39.620;2022-12-07T15:00:25;-3.00;71.04
75281;HTU21D;63874;47.230;39.620;2022-12-07T15:02:51;-3.00;70.76
75281;HTU21D;63874;47.230;39.620;2022-12-07T15:05:18;-2.95;70.35
75281;HTU21D;63874;47.230;39.620;2022-12-07T15:07:45;-2.95;70.13
75281;HTU21D;63874;47.230;39.620;2022-12-07T15:10:21;-2.94;69.90
75281;HTU21D;63874;47.230;39.620;2022-12-07T15:12:47;-2.97;69.91
75281;HTU21D;63874;47.230;39.620;2022-12-07T15:15:13;-2.96;69.88
75281;HTU21D;63874;47.230;39.620;2022-12-07T15:17:41;-3.01;70.17
75281;HTU21D;63874;47.230;39.620;2022-12-07T15:20:16;-2.93;69.88
75281;HTU21D;63874;47.230;39.620;2022-12-07T15:22:42;-2.98;70.08
75281;HTU21D;63874;47.230;39.620;2022-12-07T15:25:09;-2.97;70.23
75281;HTU21D;63874;47.230;39.620;2022-12-07T15:27:38;-2.98;70.42
75281;HTU21D;63874;47.230;39.620;2022-12-07T15:30:04;-3.02;70.66
75281;HTU21D;63874;47.230;39.620;2022-12-07T15:32:32;-3.00;70.95
75281;HTU21D;63874;47.230;39.620;2022-12-07T15:34:57;-3.03;71.16
75281;HTU21D;63874;47.230;39.620;2022-12-07T15:37:23;-3.04;71.26
75281;HTU21D;63874;47.230;39.620;2022-12-07T15:39:49;-3.01;71.58
75281;HTU21D;63874;47.230;39.620;2022-12-07T15:42:15;-3.04;71.77
75281;HTU21D;63874;47.230;39.620;2022-12-07T15:44:41;-3.05;72.03
75281;HTU21D;63874;47.230;39.620;2022-12-07T15:47:25;-3.09;72.33
75281;HTU21D;63874;47.230;39.620;2022-12-07T15:49:51;-3.13;72.34
75281;HTU21D;63874;47.230;39.620;2022-12-07T15:52:17;-3.19;72.46
75281;HTU21D;63874;47.230;39.620;2022-12-07T15:54:44;-3.20;72.75
75281;HTU21D;63874;47.230;39.620;2022-12-07T15:57:11;-3.22;72.79
75281;HTU21D;63874;47.230;39.620;2022-12-07T15:59:36;-3.18;72.79
75281;HTU21D;63874;47.230;39.620;2022-12-07T16:02:02;-3.17;72.86
75281;HTU21D;63874;47.230;39.620;2022-12-07T16:04:29;-3.18;72.61
75281;HTU21D;63874;47.230;39.620;2022-12-07T16:06:55;-3.19;73.03
75281;HTU21D;63874;47.230;39.620;2022-12-07T16:09:22;-3.18;72.98
75281;HTU21D;63874;47.230;39.620;2022-12-07T16:11:48;-3.21;73.05
75281;HTU21D;63874;47.230;39.620;2022-12-07T16:14:15;-3.22;73.25
75281;HTU21D;63874;47.230;39.620;2022-12-07T16:16:42;-3.17;73.35
75281;HTU21D;63874;47.230;39.620;2022-12-07T16:19:08;-3.21;73.20
75281;HTU21D;63874;47.230;39.620;2022-12-07T16:21:34;-3.21;73.25
75281;HTU21D;63874;47.230;39.620;2022-12-07T16:24:04;-3.20;73.10
75281;HTU21D;63874;47.230;39.620;2022-12-07T16:26:31;-3.21;73.09
75281;HTU21D;63874;47.230;39.620;2022-12-07T16:28:57;-3.24;73.06
75281;HTU21D;63874;47.230;39.620;2022-12-07T16:31:26;-3.25;73.15
75281;HTU21D;63874;47.230;39.620;2022-12-07T16:33:54;-3.26;73.21
75281;HTU21D;63874;47.230;39.620;2022-12-07T16:36:21;-3.26;73.24
75281;HTU21D;63874;47.230;39.620;2022-12-07T16:38:50;-3.28;73.09
75281;HTU21D;63874;47.230;39.620;2022-12-07T16:41:16;-3.32;72.90
75281;HTU21D;63874;47.230;39.620;2022-12-07T16:43:42;-3.31;72.77
75281;HTU21D;63874;47.230;39.620;2022-12-07T16:46:08;-3.27;72.42
75281;HTU21D;63874;47.230;39.620;2022-12-07T16:48:38;-3.31;72.08
75281;HTU21D;63874;47.230;39.620;2022-12-07T16:51:07;-3.33;72.16
75281;HTU21D;63874;47.230;39.620;2022-12-07T16:53:37;-3.31;72.02
75281;HTU21D;63874;47.230;39.620;2022-12-07T16:56:04;-3.26;71.58
75281;HTU21D;63874;47.230;39.620;2022-12-07T16:58:31;-3.32;71.54
75281;HTU21D;63874;47.230;39.620;2022-12-07T17:00:57;-3.32;71.54
75281;HTU21D;63874;47.230;39.620;2022-12-07T17:03:23;-3.34;71.46
75281;HTU21D;63874;47.230;39.620;2022-12-07T17:05:49;-3.33;71.18
75281;HTU21D;63874;47.230;39.620;2022-12-07T17:08:15;-3.40;71.45
75281;HTU21D;63874;47.230;39.620;2022-12-07T17:10:43;-3.35;71.17
75281;HTU21D;63874;47.230;39.620;2022-12-07T17:13:10;-3.32;70.93